Time;durP1;ratioP1;P1;durP2;ratioP2;P2;SDS_P1;SDS_P2;PMS_P1;PMS_P2;Temp;Humidity;BMP_temperature;BMP_pressure;BME280_temperature;BME280_humidity;BME280_pressure;Samples;Min_cycle;Max_cycle;Signal;HPM_P1;HPM_P2
2022/07/06 00:02:06;;;;;;;3.10;2.90;;;20.80;63.10;;;;;;4943660;29;20470;-85
2022/07/06 00:04:32;;;;;;;7.60;3.20;;;20.80;63.20;;;;;;4944515;29;20481;-84
2022/07/06 00:06:59;;;;;;;5.10;3.17;;;20.90;63.30;;;;;;4949315;29;20505;-83
2022/07/06 00:09:26;;;;;;;7.13;2.60;;;20.90;63.20;;;;;;4945130;29;20480;-84
2022/07/06 00:11:52;;;;;;;5.43;3.10;;;20.80;63.30;;;;;;4943807;29;20474;-84
2022/07/06 00:14:20;;;;;;;4.70;3.30;;;20.80;63.60;;;;;;4945140;29;20451;-84
2022/07/06 00:16:47;;;;;;;2.77;2.47;;;20.80;63.90;;;;;;4944086;29;20457;-86
2022/07/06 00:19:14;;;;;;;4.00;3.40;;;20.70;64.20;;;;;;4946931;29;20528;-84
2022/07/06 00:21:40;;;;;;;3.37;3.00;;;20.60;64.80;;;;;;4944421;29;20466;-84
2022/07/06 00:24:07;;;;;;;4.57;3.57;;;20.60;64.90;;;;;;4945172;29;20454;-84
2022/07/06 00:26:34;;;;;;;3.93;3.53;;;20.50;65.30;;;;;;4946775;29;20464;-83
2022/07/06 00:29:00;;;;;;;3.13;2.60;;;20.50;65.40;;;;;;4946888;29;20445;-84
2022/07/06 00:31:28;;;;;;;5.00;2.83;;;20.50;65.80;;;;;;4943639;29;20498;-84
2022/07/06 00:33:55;;;;;;;6.73;3.47;;;20.50;66.00;;;;;;4944250;29;20449;-84
2022/07/06 00:36:22;;;;;;;3.50;2.90;;;20.50;65.80;;;;;;4947799;29;20450;-83
2022/07/06 00:38:48;;;;;;;4.40;3.30;;;20.50;66.50;;;;;;4948668;29;20552;-84
2022/07/06 00:41:15;;;;;;;3.70;3.40;;;20.50;66.50;;;;;;4948493;29;20477;-85
2022/07/06 00:43:49;;;;;;;4.20;3.33;;;20.40;66.40;;;;;;4947760;29;20486;-85
2022/07/06 00:46:16;;;;;;;5.60;3.57;;;20.40;66.00;;;;;;4946606;29;20481;-85
2022/07/06 00:48:44;;;;;;;3.63;3.30;;;20.40;66.80;;;;;;4948537;29;20449;-85
2022/07/06 00:51:10;;;;;;;5.00;3.00;;;20.30;66.50;;;;;;4947264;29;20990;-85
2022/07/06 00:53:38;;;;;;;5.17;3.80;;;20.40;66.50;;;;;;4947375;29;20439;-85
2022/07/06 00:56:05;;;;;;;5.37;3.13;;;20.30;66.50;;;;;;4946569;29;20446;-85
2022/07/06 00:58:32;;;;;;;3.80;3.00;;;20.40;66.40;;;;;;4948605;29;20460;-85
2022/07/06 01:00:58;;;;;;;5.00;3.97;;;20.30;66.50;;;;;;4947941;29;20592;-85
2022/07/06 01:03:25;;;;;;;5.30;3.53;;;20.30;66.60;;;;;;4946556;29;20462;-85
2022/07/06 01:05:53;;;;;;;4.00;3.60;;;20.30;66.90;;;;;;4946504;29;21007;-85
2022/07/06 01:08:20;;;;;;;5.50;3.43;;;20.20;67.20;;;;;;4946223;29;20446;-85
2022/07/06 01:10:47;;;;;;;6.73;4.10;;;20.20;67.30;;;;;;4946095;29;20450;-85
2022/07/06 01:13:14;;;;;;;4.63;3.63;;;20.20;67.30;;;;;;4944688;29;20877;-85
2022/07/06 01:15:40;;;;;;;5.23;4.50;;;20.20;67.40;;;;;;4942815;29;20799;-85
2022/07/06 01:18:10;;;;;;;5.60;3.50;;;20.20;67.40;;;;;;4959946;29;20434;-84
2022/07/06 01:20:38;;;;;;;7.77;3.23;;;20.10;67.30;;;;;;4957329;29;20446;-85
2022/07/06 01:23:04;;;;;;;4.20;3.43;;;20.10;67.30;;;;;;4948508;29;20443;-85
2022/07/06 01:25:32;;;;;;;4.67;3.50;;;20.10;67.40;;;;;;4947664;29;20486;-85
2022/07/06 01:27:58;;;;;;;5.17;3.33;;;20.00;67.20;;;;;;4947023;29;20490;-85
2022/07/06 01:30:25;;;;;;;3.27;2.87;;;20.00;67.10;;;;;;4945689;29;20450;-85
2022/07/06 01:32:52;;;;;;;4.30;3.00;;;20.00;67.70;;;;;;4945044;29;20498;-85
2022/07/06 01:35:19;;;;;;;3.60;3.30;;;19.90;67.40;;;;;;4944943;29;20450;-85
2022/07/06 01:37:47;;;;;;;6.13;3.50;;;19.90;68.00;;;;;;4946357;29;20450;-86
2022/07/06 01:40:14;;;;;;;2.60;2.40;;;19.80;68.20;;;;;;4948164;29;20513;-86
2022/07/06 01:42:41;;;;;;;8.07;3.20;;;19.80;67.60;;;;;;4943499;29;20458;-86
2022/07/06 01:45:09;;;;;;;3.90;3.00;;;19.80;67.70;;;;;;4945384;29;20857;-85
2022/07/06 01:47:36;;;;;;;3.00;2.80;;;19.80;67.60;;;;;;4944378;29;20446;-85
2022/07/06 01:50:06;;;;;;;2.50;2.30;;;19.70;67.90;;;;;;4945456;29;20457;-86
2022/07/06 01:52:33;;;;;;;5.23;3.10;;;19.70;68.00;;;;;;4945002;29;20478;-85
2022/07/06 01:55:01;;;;;;;7.10;3.60;;;19.70;68.20;;;;;;4945055;29;20446;-85
2022/07/06 01:57:28;;;;;;;6.20;3.53;;;19.60;68.20;;;;;;4948208;29;20454;-86
2022/07/06 01:59:54;;;;;;;6.43;3.27;;;19.50;68.20;;;;;;4949539;29;20450;-86
2022/07/06 02:02:21;;;;;;;3.77;2.90;;;19.60;68.60;;;;;;4945971;29;20470;-86
2022/07/06 02:04:48;;;;;;;6.83;2.93;;;19.50;68.30;;;;;;4944309;29;20501;-86
2022/07/06 02:07:14;;;;;;;3.40;2.93;;;19.50;68.60;;;;;;4947749;29;20486;-85
2022/07/06 02:09:41;;;;;;;4.93;3.07;;;19.40;68.60;;;;;;4948840;29;20454;-86
2022/07/06 02:12:09;;;;;;;5.00;2.43;;;19.30;68.90;;;;;;4946526;29;20485;-86
2022/07/06 02:14:36;;;;;;;4.80;3.30;;;19.30;69.10;;;;;;4945432;29;20454;-85
2022/07/06 02:17:03;;;;;;;4.00;3.60;;;19.20;69.40;;;;;;4945242;29;20454;-85
2022/07/06 02:19:30;;;;;;;3.10;2.80;;;19.20;69.70;;;;;;4947273;29;20809;-85
2022/07/06 02:21:56;;;;;;;5.50;3.80;;;19.20;70.00;;;;;;4948269;29;20990;-85
2022/07/06 02:24:23;;;;;;;4.63;3.23;;;19.20;69.80;;;;;;4952946;29;20450;-86
2022/07/06 02:26:49;;;;;;;5.33;2.70;;;19.10;69.30;;;;;;4951552;29;20490;-86
2022/07/06 02:29:17;;;;;;;3.60;2.60;;;19.10;69.30;;;;;;4958447;29;20478;-85
2022/07/06 02:31:44;;;;;;;4.73;3.20;;;19.10;70.00;;;;;;4950718;29;20466;-86
2022/07/06 02:34:11;;;;;;;3.37;2.60;;;19.00;70.20;;;;;;4949289;29;20450;-86
2022/07/06 02:36:37;;;;;;;3.60;3.07;;;18.90;70.50;;;;;;4945047;29;20449;-85
2022/07/06 02:39:04;;;;;;;5.80;3.00;;;18.80;71.30;;;;;;4944083;29;20943;-86
2022/07/06 02:41:31;;;;;;;3.07;2.77;;;18.80;71.70;;;;;;4943097;29;20486;-86
2022/07/06 02:43:57;;;;;;;5.00;2.93;;;18.80;71.90;;;;;;4943895;29;20450;-85
2022/07/06 02:46:25;;;;;;;6.30;3.80;;;18.80;72.10;;;;;;4943049;29;20482;-85
2022/07/06 02:48:52;;;;;;;6.33;3.10;;;18.70;72.70;;;;;;4944037;29;20450;-85
2022/07/06 02:51:19;;;;;;;3.33;3.03;;;18.70;72.70;;;;;;4943533;29;20470;-85
2022/07/06 02:53:45;;;;;;;5.93;3.23;;;18.70;72.80;;;;;;4943415;29;20454;-85
2022/07/06 02:56:12;;;;;;;4.70;3.50;;;18.70;73.40;;;;;;4943263;29;20458;-86
2022/07/06 02:58:38;;;;;;;3.10;2.80;;;18.60;73.60;;;;;;4943998;29;20458;-85
2022/07/06 03:01:05;;;;;;;3.70;3.00;;;18.50;73.90;;;;;;4944327;29;20920;-86
2022/07/06 03:03:33;;;;;;;5.97;3.30;;;18.50;74.10;;;;;;4942761;29;20458;-86
2022/07/06 03:06:00;;;;;;;5.63;3.10;;;18.50;74.20;;;;;;4941479;29;20482;-86
2022/07/06 03:08:27;;;;;;;4.00;3.60;;;18.40;74.60;;;;;;4943036;29;20450;-86
2022/07/06 03:10:53;;;;;;;4.40;2.90;;;18.40;75.10;;;;;;4943725;29;20866;-85
2022/07/06 03:13:20;;;;;;;4.33;3.93;;;18.40;75.10;;;;;;4942173;29;20470;-86
2022/07/06 03:15:46;;;;;;;3.60;2.90;;;18.30;75.70;;;;;;4943312;29;20454;-86
2022/07/06 03:18:13;;;;;;;10.07;3.17;;;18.40;75.60;;;;;;4944072;29;20458;-86
2022/07/06 03:20:41;;;;;;;5.80;3.73;;;18.40;75.40;;;;;;4944471;29;20456;-86
2022/07/06 03:23:08;;;;;;;3.90;2.70;;;18.40;75.80;;;;;;4942823;29;20450;-85
2022/07/06 03:25:34;;;;;;;3.97;3.57;;;18.30;76.30;;;;;;4942115;29;20549;-86
2022/07/06 03:28:01;;;;;;;4.80;3.37;;;18.30;76.60;;;;;;4941846;29;20562;-86
2022/07/06 03:30:28;;;;;;;6.40;2.90;;;18.30;76.90;;;;;;4942710;29;20461;-86
2022/07/06 03:32:55;;;;;;;3.63;3.30;;;18.20;77.00;;;;;;4948323;29;20474;-85
2022/07/06 03:35:22;;;;;;;3.80;3.23;;;18.30;77.50;;;;;;4945554;29;20454;-86
2022/07/06 03:37:50;;;;;;;7.50;4.00;;;18.20;77.90;;;;;;4944094;29;20453;-86
2022/07/06 03:40:16;;;;;;;4.80;3.63;;;18.20;78.20;;;;;;4946447;29;20460;-86
2022/07/06 03:42:43;;;;;;;5.10;3.70;;;18.20;78.60;;;;;;4942569;29;20466;-86
2022/07/06 03:45:11;;;;;;;4.40;3.63;;;18.10;78.50;;;;;;4943837;29;20454;-85
2022/07/06 03:47:37;;;;;;;5.60;3.60;;;18.10;79.40;;;;;;4943976;29;20474;-86
2022/07/06 03:50:05;;;;;;;4.17;3.80;;;18.10;79.90;;;;;;4948562;29;20446;-85
2022/07/06 03:52:31;;;;;;;5.50;3.57;;;18.10;79.70;;;;;;4946986;29;20509;-86
2022/07/06 03:54:59;;;;;;;5.13;3.80;;;18.10;79.90;;;;;;4943524;29;20450;-86
2022/07/06 03:57:26;;;;;;;7.03;3.70;;;18.10;80.10;;;;;;4943015;29;20467;-86
2022/07/06 03:59:53;;;;;;;5.57;3.90;;;18.10;80.10;;;;;;4942582;29;20454;-85
2022/07/06 04:02:19;;;;;;;12.77;4.20;;;18.10;80.60;;;;;;4941793;29;20466;-85
2022/07/06 04:04:46;;;;;;;7.33;4.20;;;18.10;80.80;;;;;;4948011;29;20436;-85
2022/07/06 04:07:13;;;;;;;5.37;3.97;;;18.20;80.80;;;;;;4950905;29;20488;-85
2022/07/06 04:09:40;;;;;;;4.67;4.27;;;18.20;81.00;;;;;;4957861;29;20516;-84
2022/07/06 04:12:08;;;;;;;5.17;4.03;;;18.20;81.40;;;;;;4956222;29;20496;-85
2022/07/06 04:14:35;;;;;;;4.40;3.47;;;18.20;82.00;;;;;;4947603;29;20454;-85
2022/07/06 04:17:51;;;;;;;4.57;4.07;;;18.10;82.10;;;;;;4945915;29;20485;-85
2022/07/06 04:19:50;;;;;;;4.40;4.00;;;18.10;82.20;;;;;;4948633;29;20489;-85
2022/07/06 04:22:16;;;;;;;4.97;4.57;;;18.10;83.00;;;;;;4943961;29;20466;-85
2022/07/06 04:24:43;;;;;;;4.40;4.00;;;18.10;83.20;;;;;;4942525;29;20446;-85
2022/07/06 04:27:11;;;;;;;5.80;4.00;;;18.00;83.60;;;;;;4944953;29;20494;-85
2022/07/06 04:29:38;;;;;;;5.50;4.30;;;18.10;84.10;;;;;;4947211;29;20457;-85
2022/07/06 04:32:05;;;;;;;4.57;4.17;;;18.10;84.20;;;;;;4948895;29;20530;-85
2022/07/06 04:34:32;;;;;;;4.70;4.30;;;18.10;84.50;;;;;;4949730;29;20479;-85
2022/07/06 04:36:59;;;;;;;5.00;4.17;;;18.10;85.00;;;;;;4948631;29;20453;-85
2022/07/06 04:39:25;;;;;;;5.13;3.97;;;18.20;84.90;;;;;;4949464;29;20593;-85
2022/07/06 04:41:52;;;;;;;4.73;4.33;;;18.30;85.00;;;;;;4949280;29;20474;-85
2022/07/06 04:44:20;;;;;;;7.53;4.57;;;18.30;84.80;;;;;;4946868;29;20484;-85
2022/07/06 04:46:47;;;;;;;7.10;5.33;;;18.30;85.20;;;;;;4945819;29;20482;-85
2022/07/06 04:49:13;;;;;;;6.40;4.37;;;18.30;85.40;;;;;;4945802;29;20517;-85
2022/07/06 04:51:40;;;;;;;6.23;5.50;;;18.30;85.60;;;;;;4945086;29;20501;-85
2022/07/06 04:54:07;;;;;;;5.33;4.43;;;18.30;85.70;;;;;;4950174;29;20535;-85
2022/07/06 04:56:34;;;;;;;5.13;4.63;;;18.40;85.50;;;;;;4949550;29;20447;-85
2022/07/06 04:59:00;;;;;;;6.03;5.43;;;18.40;85.70;;;;;;4950084;29;20521;-85
2022/07/06 05:01:28;;;;;;;4.50;4.10;;;18.40;85.70;;;;;;4947495;29;20462;-85
2022/07/06 05:03:55;;;;;;;8.00;5.20;;;18.50;86.60;;;;;;4945900;29;20453;-85
2022/07/06 05:06:22;;;;;;;6.30;5.47;;;18.50;85.90;;;;;;4945243;29;20514;-85
2022/07/06 05:08:48;;;;;;;4.87;4.37;;;18.60;85.40;;;;;;4944387;29;20454;-85
2022/07/06 05:11:15;;;;;;;5.17;4.77;;;18.70;85.30;;;;;;4939608;29;20983;-85
2022/07/06 05:13:42;;;;;;;5.10;4.70;;;18.60;85.00;;;;;;4938740;29;20454;-86
2022/07/06 05:16:12;;;;;;;5.83;4.70;;;18.70;85.20;;;;;;4941880;29;20438;-86
2022/07/06 05:18:40;;;;;;;9.30;4.60;;;18.70;85.20;;;;;;4944813;29;20474;-85
2022/07/06 05:21:06;;;;;;;8.13;5.13;;;18.80;85.40;;;;;;4944258;29;20473;-84
2022/07/06 05:23:33;;;;;;;6.97;5.53;;;19.10;84.90;;;;;;4946917;29;20443;-85
2022/07/06 05:26:00;;;;;;;6.27;4.60;;;19.70;83.10;;;;;;4948353;29;20478;-85
2022/07/06 05:28:27;;;;;;;4.53;4.10;;;20.30;81.00;;;;;;4950670;29;20449;-85
2022/07/06 05:30:53;;;;;;;6.00;3.97;;;20.90;78.10;;;;;;4949557;29;20447;-85
2022/07/06 05:33:20;;;;;;;6.53;4.30;;;21.30;75.60;;;;;;4948949;29;20453;-85
2022/07/06 05:35:48;;;;;;;4.27;3.90;;;21.80;74.20;;;;;;4945723;29;20870;-86
2022/07/06 05:38:15;;;;;;;5.20;4.47;;;22.30;72.00;;;;;;4941182;29;20458;-86
2022/07/06 05:40:41;;;;;;;4.67;4.27;;;22.70;70.10;;;;;;4946206;29;20454;-86
2022/07/06 05:43:08;;;;;;;5.30;4.80;;;23.20;68.20;;;;;;4943197;29;20458;-86
2022/07/06 05:45:35;;;;;;;4.93;3.90;;;23.40;66.60;;;;;;4941602;29;20457;-86
2022/07/06 05:50:47;;;;;;;6.27;4.03;;;23.10;66.30;;;;;;4944680;29;20629;-86
2022/07/06 05:53:14;;;;;;;4.40;4.07;;;22.90;67.00;;;;;;4943274;29;20454;-86
2022/07/06 05:55:41;;;;;;;3.30;3.00;;;22.80;66.10;;;;;;4944006;29;20446;-86
2022/07/06 05:58:08;;;;;;;4.93;3.97;;;22.60;66.20;;;;;;4944257;29;20522;-84
2022/07/06 06:00:34;;;;;;;4.93;3.77;;;22.60;65.80;;;;;;4944074;29;20462;-86
2022/07/06 06:03:01;;;;;;;4.27;3.87;;;22.30;66.10;;;;;;4942130;29;20466;-86
2022/07/06 06:05:28;;;;;;;4.90;3.50;;;22.50;66.20;;;;;;4941199;29;20454;-86
2022/07/06 06:07:56;;;;;;;5.37;3.57;;;22.80;65.40;;;;;;4941812;29;21030;-86
2022/07/06 06:10:23;;;;;;;4.23;3.50;;;23.10;63.80;;;;;;4940301;29;20454;-86
2022/07/06 06:12:50;;;;;;;5.10;3.40;;;23.00;63.80;;;;;;4940333;29;20479;-85
2022/07/06 06:15:18;;;;;;;3.90;3.50;;;23.00;64.10;;;;;;4939163;29;20997;-86
2022/07/06 06:17:45;;;;;;;6.30;3.43;;;23.30;64.10;;;;;;4941781;29;20453;-86
2022/07/06 06:20:14;;;;;;;5.47;4.77;;;23.70;62.20;;;;;;4944694;29;20453;-86
2022/07/06 06:22:49;;;;;;;5.50;3.70;;;24.30;60.60;;;;;;4940868;29;20465;-86
2022/07/06 06:25:18;;;;;;;4.00;3.60;;;25.00;59.50;;;;;;4940857;29;20458;-86
2022/07/06 06:27:45;;;;;;;10.43;3.60;;;25.30;59.00;;;;;;4939070;29;20490;-86
2022/07/06 06:30:13;;;;;;;4.90;3.63;;;25.80;57.40;;;;;;4940121;29;20454;-85
2022/07/06 06:32:40;;;;;;;6.50;3.23;;;26.30;56.20;;;;;;4940084;29;20465;-86
2022/07/06 06:35:07;;;;;;;4.00;3.60;;;26.60;55.60;;;;;;4938473;29;20486;-85
2022/07/06 06:37:35;;;;;;;3.80;3.20;;;26.90;54.60;;;;;;4940078;29;20453;-86
2022/07/06 06:40:01;;;;;;;4.77;3.20;;;27.40;53.70;;;;;;4939215;29;20485;-85
2022/07/06 06:42:29;;;;;;;5.50;4.10;;;27.80;52.80;;;;;;4938379;29;20482;-85
2022/07/06 06:44:56;;;;;;;7.17;4.03;;;28.30;51.50;;;;;;4938486;29;20450;-85
2022/07/06 06:47:23;;;;;;;4.37;3.30;;;28.60;51.10;;;;;;4938243;29;20551;-85
2022/07/06 06:49:49;;;;;;;7.77;3.57;;;29.00;50.20;;;;;;4938096;29;20461;-85
2022/07/06 06:52:16;;;;;;;4.50;2.97;;;29.00;49.80;;;;;;4952582;29;20477;-85
2022/07/06 06:54:43;;;;;;;3.37;2.87;;;29.10;48.80;;;;;;4945280;29;20456;-86
2022/07/06 06:57:09;;;;;;;5.43;3.60;;;29.20;48.50;;;;;;4940679;29;20458;-85
2022/07/06 06:59:37;;;;;;;6.77;3.50;;;29.50;48.50;;;;;;4945613;29;20452;-85
2022/07/06 07:02:04;;;;;;;4.00;3.20;;;29.80;48.40;;;;;;4954976;29;20509;-85
2022/07/06 07:04:31;;;;;;;3.30;2.60;;;30.20;47.70;;;;;;4957355;29;20473;-86
2022/07/06 07:06:58;;;;;;;5.00;3.10;;;30.50;46.80;;;;;;4957551;29;20490;-85
2022/07/06 07:09:25;;;;;;;3.47;3.10;;;30.90;46.00;;;;;;4943599;29;20513;-85
2022/07/06 07:11:51;;;;;;;4.20;3.50;;;31.40;44.70;;;;;;4943145;29;20474;-86
2022/07/06 07:14:18;;;;;;;3.97;3.03;;;31.20;43.70;;;;;;4946059;29;20454;-86
2022/07/06 07:16:46;;;;;;;5.70;3.37;;;31.10;44.10;;;;;;4938476;29;20447;-86
2022/07/06 07:19:13;;;;;;;7.97;3.53;;;31.70;43.80;;;;;;4937952;29;20451;-86
2022/07/06 07:21:39;;;;;;;5.00;3.03;;;31.80;42.70;;;;;;4939250;29;20477;-85
2022/07/06 07:24:07;;;;;;;4.23;3.50;;;31.80;42.90;;;;;;4938004;29;20458;-86
2022/07/06 07:26:34;;;;;;;4.80;3.03;;;31.90;42.70;;;;;;4937880;29;20930;-85
2022/07/06 07:29:01;;;;;;;8.50;3.43;;;31.90;42.80;;;;;;4937356;29;20496;-86
2022/07/06 07:31:27;;;;;;;6.93;3.60;;;32.30;42.00;;;;;;4936431;29;20484;-86
2022/07/06 07:33:56;;;;;;;4.70;3.27;;;32.00;41.60;;;;;;4937334;29;20459;-86
2022/07/06 07:36:24;;;;;;;3.83;2.83;;;32.20;41.50;;;;;;4940541;29;20452;-86
2022/07/06 07:38:51;;;;;;;3.70;3.40;;;32.50;41.50;;;;;;4941008;29;20489;-86
2022/07/06 07:41:17;;;;;;;4.10;3.03;;;32.60;41.60;;;;;;4941710;29;20494;-86
2022/07/06 07:43:44;;;;;;;3.63;3.07;;;33.00;40.80;;;;;;4937649;29;20450;-86
2022/07/06 07:46:11;;;;;;;5.30;3.00;;;32.60;41.00;;;;;;4937005;29;20459;-86
2022/07/06 07:48:39;;;;;;;6.03;2.93;;;32.50;41.20;;;;;;4942476;29;20544;-84
2022/07/06 07:51:08;;;;;;;3.00;2.70;;;32.90;40.90;;;;;;4949275;29;20458;-86
2022/07/06 07:53:35;;;;;;;4.40;3.40;;;32.90;40.50;;;;;;4952566;29;20516;-85
2022/07/06 07:56:02;;;;;;;3.27;2.97;;;32.90;40.90;;;;;;4945551;29;20481;-84
2022/07/06 07:58:29;;;;;;;3.53;3.20;;;33.80;40.50;;;;;;4943491;29;20661;-84
2022/07/06 08:00:56;;;;;;;8.20;2.90;;;34.10;39.50;;;;;;4942813;29;20511;-85
2022/07/06 08:03:23;;;;;;;4.27;3.43;;;34.10;39.10;;;;;;4942664;29;20519;-84
2022/07/06 08:05:50;;;;;;;3.30;2.97;;;34.00;39.60;;;;;;4941011;29;20448;-85
2022/07/06 08:08:18;;;;;;;4.50;3.23;;;34.40;38.90;;;;;;4941700;29;20498;-85
2022/07/06 08:10:45;;;;;;;3.50;3.30;;;34.50;38.50;;;;;;4941706;29;20868;-85
2022/07/06 08:13:14;;;;;;;3.13;2.40;;;34.70;38.10;;;;;;4941427;29;20488;-85
2022/07/06 08:15:41;;;;;;;6.43;3.40;;;34.80;37.50;;;;;;4943199;29;20984;-85
2022/07/06 08:18:09;;;;;;;3.90;2.93;;;34.60;37.80;;;;;;4940524;29;20448;-85
2022/07/06 08:20:35;;;;;;;2.97;2.67;;;34.70;38.00;;;;;;4944889;29;20483;-85
2022/07/06 08:23:04;;;;;;;4.20;3.23;;;34.90;37.80;;;;;;4942636;29;20890;-85
2022/07/06 08:25:33;;;;;;;6.80;3.60;;;35.10;37.20;;;;;;4941670;29;20460;-84
2022/07/06 08:28:00;;;;;;;3.20;2.90;;;35.10;37.30;;;;;;4942628;29;20499;-85
2022/07/06 08:30:26;;;;;;;2.50;2.30;;;35.70;36.80;;;;;;4952564;23;20907;-78
2022/07/06 08:32:53;;;;;;;4.60;2.83;;;36.10;35.80;;;;;;4939280;29;20952;-79
2022/07/06 08:35:20;;;;;;;3.53;3.23;;;35.60;36.30;;;;;;4939742;29;20536;-80
2022/07/06 08:37:46;;;;;;;4.13;3.23;;;35.10;36.60;;;;;;4943339;29;20866;-79
2022/07/06 08:40:13;;;;;;;3.37;3.07;;;35.30;37.10;;;;;;4942461;29;20463;-79
2022/07/06 08:42:43;;;;;;;5.20;3.40;;;35.00;36.70;;;;;;4940302;29;20455;-79
2022/07/06 08:45:10;;;;;;;6.93;3.30;;;35.30;36.80;;;;;;4939461;29;20480;-88
2022/07/06 08:47:38;;;;;;;4.10;3.20;;;36.30;35.80;;;;;;4938069;29;20590;-85
2022/07/06 08:50:06;;;;;;;6.73;3.40;;;36.70;35.30;;;;;;4938596;28;20488;-87
2022/07/06 08:52:33;;;;;;;3.80;2.60;;;35.90;35.60;;;;;;4938841;29;20540;-86
2022/07/06 08:55:00;;;;;;;7.20;3.40;;;35.90;36.50;;;;;;4938741;29;20466;-87
2022/07/06 08:57:28;;;;;;;3.70;3.13;;;35.90;36.90;;;;;;4937770;29;21088;-86
2022/07/06 08:59:57;;;;;;;3.67;3.33;;;35.40;37.00;;;;;;4938580;29;20649;-87
2022/07/06 09:02:26;;;;;;;5.13;3.47;;;36.50;36.50;;;;;;4938957;29;20461;-86
2022/07/06 09:04:55;;;;;;;4.00;2.80;;;36.70;35.30;;;;;;4941528;29;20484;-87
2022/07/06 09:07:23;;;;;;;4.07;2.57;;;36.90;34.70;;;;;;4938364;29;20523;-87
2022/07/06 09:09:50;;;;;;;3.40;2.90;;;36.70;34.70;;;;;;4941306;29;20449;-86
2022/07/06 09:12:17;;;;;;;3.20;2.70;;;37.40;33.90;;;;;;4943458;29;20842;-85
2022/07/06 09:14:44;;;;;;;4.03;2.97;;;38.00;33.10;;;;;;4939588;29;20446;-86
2022/07/06 09:17:13;;;;;;;3.40;2.90;;;37.30;33.30;;;;;;4947909;29;20456;-86
2022/07/06 09:19:40;;;;;;;5.20;3.60;;;37.40;33.80;;;;;;4950935;28;20437;-84
2022/07/06 09:22:07;;;;;;;3.80;3.50;;;37.60;33.50;;;;;;4961841;28;20457;-85
2022/07/06 09:24:38;;;;;;;3.20;2.90;;;38.20;32.40;;;;;;4951526;29;20450;-86
2022/07/06 09:27:05;;;;;;;4.90;3.17;;;37.20;33.00;;;;;;4938119;29;20459;-86
2022/07/06 09:29:33;;;;;;;3.77;2.87;;;36.20;35.10;;;;;;4945510;29;20419;-85
2022/07/06 09:32:00;;;;;;;3.80;2.90;;;36.80;34.50;;;;;;4961013;29;20471;-84
2022/07/06 09:34:41;;;;;;;3.37;3.07;;;37.00;33.50;;;;;;4946290;29;20829;-87
2022/07/06 09:37:08;;;;;;;5.43;3.30;;;36.30;34.00;;;;;;4939667;29;20488;-84
2022/07/06 09:39:35;;;;;;;4.10;3.63;;;35.30;35.20;;;;;;4938740;29;20457;-87
2022/07/06 09:42:04;;;;;;;4.50;2.90;;;35.40;35.40;;;;;;4938082;28;20477;-86
2022/07/06 09:44:32;;;;;;;4.47;3.00;;;36.00;35.00;;;;;;4937606;29;20493;-86
2022/07/06 09:47:00;;;;;;;5.00;2.63;;;37.00;34.30;;;;;;4945123;29;20468;-86
2022/07/06 09:49:27;;;;;;;4.60;3.17;;;37.30;33.30;;;;;;4951280;29;20452;-88
2022/07/06 09:51:57;;;;;;;2.97;2.77;;;38.00;32.70;;;;;;4959828;28;20553;-86
2022/07/06 09:54:24;;;;;;;6.73;2.93;;;37.60;32.40;;;;;;4954102;29;20452;-87
2022/07/06 09:56:52;;;;;;;4.23;3.10;;;37.20;33.40;;;;;;4940678;29;20997;-87
2022/07/06 09:59:21;;;;;;;5.27;2.80;;;36.90;33.30;;;;;;4938444;29;20457;-86
2022/07/06 10:01:48;;;;;;;5.90;2.90;;;37.90;32.40;;;;;;4940667;29;20513;-86
2022/07/06 10:04:18;;;;;;;3.53;2.87;;;38.20;32.00;;;;;;4938720;29;20465;-87
2022/07/06 10:06:45;;;;;;;3.53;3.17;;;38.10;32.10;;;;;;4937284;29;20458;-88
2022/07/06 10:09:15;;;;;;;6.33;3.03;;;38.40;31.80;;;;;;4937721;29;20604;-87
2022/07/06 10:11:48;;;;;;;3.57;2.80;;;38.80;30.90;;;;;;4937603;29;20485;-86
2022/07/06 10:14:18;;;;;;;3.87;3.00;;;38.10;30.80;;;;;;4937627;29;20437;-86
2022/07/06 10:16:47;;;;;;;4.87;2.80;;;37.60;32.20;;;;;;4937174;29;20484;-86
2022/07/06 10:19:15;;;;;;;3.90;2.57;;;37.70;31.90;;;;;;4937647;29;20446;-87
2022/07/06 10:21:42;;;;;;;2.70;2.50;;;38.30;30.80;;;;;;4937307;29;20485;-87
2022/07/06 10:24:10;;;;;;;3.67;2.83;;;38.70;30.10;;;;;;4937025;29;20466;-87
2022/07/06 10:26:40;;;;;;;7.10;3.50;;;39.50;29.60;;;;;;4937387;29;20468;-88
2022/07/06 10:29:08;;;;;;;2.80;2.50;;;39.50;29.90;;;;;;4937201;29;21032;-87
2022/07/06 10:31:38;;;;;;;7.20;3.00;;;39.70;29.50;;;;;;4937324;29;20493;-88
2022/07/06 10:34:07;;;;;;;5.30;2.80;;;39.80;29.50;;;;;;4936664;29;20450;-87
2022/07/06 10:36:38;;;;;;;3.90;2.70;;;40.10;29.50;;;;;;4937079;29;20458;-88
2022/07/06 10:41:02;;;;;;;4.10;3.60;;;40.10;29.50;;;;;;4946135;29;20545;-87
2022/07/06 10:41:53;;;;;;;4.30;2.80;;;39.60;29.50;;;;;;4942532;29;20553;-89
2022/07/06 10:44:22;;;;;;;3.53;3.00;;;37.70;30.90;;;;;;4941438;29;20457;-87
2022/07/06 10:46:54;;;;;;;3.60;3.30;;;36.40;32.50;;;;;;4937449;28;20964;-87
2022/07/06 10:49:22;;;;;;;4.83;3.70;;;37.30;32.50;;;;;;4939479;28;20477;-83
2022/07/06 10:51:50;;;;;;;5.43;3.57;;;38.10;31.70;;;;;;4944998;29;20457;-87
2022/07/06 10:54:18;;;;;;;3.80;3.23;;;37.60;31.60;;;;;;4947857;29;20449;-87
2022/07/06 10:56:47;;;;;;;3.90;3.10;;;38.10;31.00;;;;;;4942237;29;20460;-88
2022/07/06 10:59:16;;;;;;;4.20;2.87;;;38.60;31.20;;;;;;4950533;28;20450;-87
2022/07/06 11:02:14;;;;;;;3.77;2.93;;;39.40;30.00;;;;;;4963533;28;20460;-86
2022/07/06 11:04:42;;;;;;;5.33;3.30;;;40.00;29.40;;;;;;4954509;29;20839;-86
2022/07/06 11:07:10;;;;;;;3.57;2.87;;;40.10;29.30;;;;;;4956590;29;20454;-86
2022/07/06 11:09:38;;;;;;;4.17;2.63;;;40.70;29.00;;;;;;4949441;29;20486;-85
2022/07/06 11:12:13;;;;;;;4.03;2.60;;;40.30;28.70;;;;;;4955859;29;20496;-86
2022/07/06 11:14:41;;;;;;;3.57;2.80;;;41.10;28.30;;;;;;4939246;29;20907;-85
2022/07/06 11:17:11;;;;;;;4.63;2.83;;;40.80;28.50;;;;;;4938509;29;20461;-85
2022/07/06 11:19:38;;;;;;;2.90;2.50;;;41.00;28.70;;;;;;4942091;29;20454;-86
2022/07/06 11:22:08;;;;;;;5.03;3.20;;;40.80;28.40;;;;;;4937697;29;20839;-85
2022/07/06 11:24:37;;;;;;;6.37;2.77;;;38.80;29.80;;;;;;4940636;28;20446;-86
2022/07/06 11:27:06;;;;;;;3.63;2.73;;;37.10;31.90;;;;;;4959910;28;20449;-86
2022/07/06 11:29:36;;;;;;;6.57;2.60;;;35.80;33.50;;;;;;4954062;29;20570;-86
2022/07/06 11:32:05;;;;;;;3.80;3.20;;;35.90;32.70;;;;;;4940429;29;20481;-85
2022/07/06 11:34:34;;;;;;;3.77;3.03;;;35.50;33.40;;;;;;4938104;29;20927;-86
2022/07/06 11:37:03;;;;;;;3.40;3.10;;;36.90;31.80;;;;;;4937415;29;20461;-86
2022/07/06 11:39:30;;;;;;;3.50;2.67;;;38.30;30.40;;;;;;4937740;29;20452;-86
2022/07/06 11:41:58;;;;;;;4.10;3.77;;;38.30;30.50;;;;;;4939811;29;20888;-87
2022/07/06 11:44:25;;;;;;;3.77;3.20;;;38.30;30.80;;;;;;4935438;29;20484;-84
2022/07/06 11:46:54;;;;;;;3.53;3.20;;;38.90;30.20;;;;;;4938770;29;20453;-86
2022/07/06 11:49:22;;;;;;;4.50;3.27;;;39.70;29.40;;;;;;4956270;29;20537;-86
2022/07/06 11:51:49;;;;;;;6.33;3.13;;;38.30;30.10;;;;;;4949288;29;20464;-85
2022/07/06 11:54:17;;;;;;;6.63;2.97;;;39.30;30.00;;;;;;4941945;28;20452;-84
2022/07/06 11:56:48;;;;;;;3.53;2.97;;;38.60;30.20;;;;;;4954804;28;20466;-86
2022/07/06 11:59:16;;;;;;;4.13;3.07;;;39.00;30.00;;;;;;4954878;28;20448;-84
2022/07/06 12:01:44;;;;;;;5.40;2.80;;;38.60;30.10;;;;;;4954524;28;20476;-84
2022/07/06 12:04:11;;;;;;;5.70;2.60;;;39.60;30.10;;;;;;4958738;28;20455;-85
2022/07/06 12:06:39;;;;;;;4.53;3.30;;;39.50;29.80;;;;;;4955539;28;20451;-85
2022/07/06 12:09:06;;;;;;;6.20;3.40;;;38.90;30.20;;;;;;4954548;28;20552;-86
2022/07/06 12:11:34;;;;;;;6.57;3.63;;;38.30;31.00;;;;;;4936723;29;21084;-86
2022/07/06 12:14:02;;;;;;;4.70;3.13;;;37.60;31.40;;;;;;4936105;29;20452;-85
2022/07/06 12:16:34;;;;;;;3.70;3.10;;;36.50;32.70;;;;;;4935749;29;20462;-85
2022/07/06 12:19:02;;;;;;;6.90;3.57;;;35.20;34.20;;;;;;4936819;29;20454;-84
2022/07/06 12:21:28;;;;;;;3.63;3.20;;;34.20;35.60;;;;;;4935846;29;20484;-85
2022/07/06 12:23:57;;;;;;;6.70;3.70;;;33.90;36.20;;;;;;4940405;29;20463;-85
2022/07/06 12:26:29;;;;;;;5.00;3.40;;;35.30;35.00;;;;;;4941585;29;20480;-85
2022/07/06 12:29:05;;;;;;;5.87;3.40;;;35.20;34.80;;;;;;4938598;29;21024;-84
2022/07/06 12:31:33;;;;;;;3.60;2.87;;;35.40;34.40;;;;;;4935926;29;20542;-86
2022/07/06 12:34:00;;;;;;;4.50;3.13;;;34.90;35.40;;;;;;4938805;29;20447;-85
2022/07/06 12:36:27;;;;;;;5.43;3.73;;;34.60;35.70;;;;;;4940351;29;20488;-86
2022/07/06 12:38:53;;;;;;;4.50;3.20;;;35.60;34.90;;;;;;4940108;29;20449;-86
2022/07/06 12:41:32;;;;;;;3.30;3.00;;;35.20;34.80;;;;;;4938517;29;20548;-85
2022/07/06 12:44:07;;;;;;;4.23;3.83;;;35.10;35.00;;;;;;4945895;29;20476;-85
2022/07/06 12:46:36;;;;;;;5.57;3.33;;;34.90;35.20;;;;;;4938400;29;20512;-85
2022/07/06 12:49:13;;;;;;;5.50;3.80;;;34.50;35.40;;;;;;4938849;29;20495;-85
2022/07/06 12:51:50;;;;;;;5.00;2.67;;;33.30;37.10;;;;;;4955484;29;20474;-85